createdAt,value
2023-04-12T00:00:52.823Z,0.90
2023-04-12T00:03:21.375Z,0.80
2023-04-12T00:05:48.884Z,0.60
2023-04-12T00:08:16.936Z,0.50
2023-04-12T00:10:43.538Z,0.60
2023-04-12T00:13:10.236Z,0.65
2023-04-12T00:15:37.079Z,1.10
2023-04-12T00:18:03.920Z,0.88
2023-04-12T00:20:30.659Z,0.52
2023-04-12T00:22:57.709Z,1.08
2023-04-12T00:25:24.540Z,0.63
2023-04-12T00:27:51.412Z,0.75
2023-04-12T00:30:18.198Z,0.75
2023-04-12T00:32:44.867Z,0.68
2023-04-12T00:35:11.558Z,0.50
2023-04-12T00:37:38.797Z,0.50
2023-04-12T00:40:09.405Z,0.45
2023-04-12T00:42:37.595Z,0.60
2023-04-12T00:45:05.114Z,0.60
2023-04-12T00:47:32.359Z,0.43
2023-04-12T00:49:59.389Z,0.60
2023-04-12T00:52:28.183Z,0.60
2023-04-12T00:54:54.849Z,0.65
2023-04-12T00:57:22.407Z,0.90
2023-04-12T00:59:49.169Z,0.63
2023-04-12T01:02:17.614Z,0.70
2023-04-12T01:04:45.889Z,0.70
2023-04-12T01:07:30.040Z,0.60
2023-04-12T01:12:51.475Z,0.55
2023-04-12T01:15:19.313Z,0.77
2023-04-12T01:18:13.658Z,0.50
2023-04-12T01:23:26.545Z,0.50
2023-04-12T01:26:02.532Z,0.73
2023-04-12T01:28:38.857Z,0.70
2023-04-12T01:31:08.765Z,0.70
2023-04-12T01:33:38.501Z,0.50
2023-04-12T01:36:12.591Z,0.75
2023-04-12T01:38:41.744Z,0.60
2023-04-12T01:41:09.216Z,0.70
2023-04-12T01:43:47.312Z,0.60
2023-04-12T01:46:17.069Z,0.80
2023-04-12T01:48:50.699Z,0.80
2023-04-12T01:51:40.538Z,0.73
2023-04-12T01:54:12.706Z,0.90
2023-04-12T01:56:46.535Z,0.60
2023-04-12T02:01:44.713Z,0.70
2023-04-12T02:04:11.999Z,0.93
2023-04-12T02:06:39.477Z,0.85
2023-04-12T02:09:06.563Z,1.08
2023-04-12T02:11:33.124Z,1.33
2023-04-12T02:13:59.948Z,1.10
2023-04-12T02:16:29.199Z,0.70
2023-04-12T02:18:59.460Z,1.10
2023-04-12T02:21:27.816Z,0.98
2023-04-12T02:23:54.806Z,2.15
2023-04-12T02:26:23.554Z,1.60
2023-04-12T02:28:50.213Z,2.05
2023-04-12T02:31:17.141Z,1.75
2023-04-12T02:33:44.053Z,1.23
2023-04-12T02:36:11.440Z,2.15
2023-04-12T02:38:38.153Z,1.20
2023-04-12T02:41:04.914Z,1.65
2023-04-12T02:43:32.954Z,2.53
2023-04-12T02:45:59.809Z,2.63
2023-04-12T02:48:26.327Z,2.13
2023-04-12T02:50:52.913Z,2.42
2023-04-12T02:53:19.448Z,1.95
2023-04-12T02:55:45.999Z,2.97
2023-04-12T02:58:12.921Z,7.97
2023-04-12T03:00:39.458Z,28.38
2023-04-12T03:03:06.564Z,37.85
2023-04-12T03:05:33.430Z,41.80
2023-04-12T03:08:00.000Z,42.38
2023-04-12T03:10:26.556Z,49.15
2023-04-12T03:12:53.111Z,44.03
2023-04-12T03:15:20.223Z,45.55
2023-04-12T03:17:46.840Z,48.30
2023-04-12T03:20:13.560Z,47.92
2023-04-12T03:22:40.296Z,48.17
2023-04-12T03:25:07.297Z,51.17
2023-04-12T03:27:33.866Z,48.88
2023-04-12T03:30:00.664Z,52.75
2023-04-12T03:32:27.271Z,46.55
2023-04-12T03:34:53.894Z,48.33
2023-04-12T03:37:20.520Z,52.85
2023-04-12T03:39:48.296Z,52.65
2023-04-12T03:42:29.440Z,56.22
2023-04-12T03:44:58.807Z,55.08
2023-04-12T03:47:25.578Z,65.00
2023-04-12T03:50:10.125Z,67.75
2023-04-12T03:52:38.285Z,79.22
2023-04-12T03:55:07.377Z,77.13
2023-04-12T03:57:34.844Z,83.85
2023-04-12T04:00:01.728Z,89.47
2023-04-12T04:02:28.640Z,87.15
2023-04-12T04:04:55.503Z,100.43
2023-04-12T04:07:22.456Z,104.18
2023-04-12T04:09:50.061Z,108.97
2023-04-12T04:12:16.770Z,114.55
2023-04-12T04:14:43.557Z,116.78
2023-04-12T04:17:10.107Z,123.13
2023-04-12T04:19:36.692Z,124.05
2023-04-12T04:22:03.259Z,126.97
2023-04-12T04:24:29.951Z,131.23
2023-04-12T04:26:56.510Z,137.50
2023-04-12T04:29:23.709Z,145.00
2023-04-12T04:31:50.840Z,151.27
2023-04-12T04:34:19.073Z,159.15
2023-04-12T04:36:46.947Z,150.57
2023-04-12T04:39:13.563Z,165.38
2023-04-12T04:41:41.408Z,184.32
2023-04-12T04:44:13.626Z,186.77
2023-04-12T04:46:40.200Z,186.18
2023-04-12T04:49:06.880Z,182.52
2023-04-12T04:51:33.505Z,188.98
2023-04-12T04:54:00.352Z,189.05
2023-04-12T04:56:27.083Z,203.32
2023-04-12T04:58:56.273Z,207.43
2023-04-12T05:01:28.428Z,211.82
2023-04-12T05:03:56.009Z,213.35
2023-04-12T05:06:23.071Z,222.00
2023-04-12T05:08:49.823Z,219.40
2023-04-12T05:11:16.453Z,225.07
2023-04-12T05:13:43.013Z,232.88
2023-04-12T05:16:10.250Z,235.82
2023-04-12T05:18:36.974Z,229.80
2023-04-12T05:21:04.286Z,242.50
2023-04-12T05:23:36.146Z,225.52
2023-04-12T05:26:02.698Z,226.77
2023-04-12T05:28:29.290Z,224.75
2023-04-12T05:30:55.911Z,235.85
2023-04-12T05:33:22.458Z,224.25
2023-04-12T05:35:49.086Z,228.05
2023-04-12T05:38:15.652Z,236.48
2023-04-12T05:40:44.157Z,249.52
2023-04-12T05:43:13.686Z,239.02
2023-04-12T05:45:41.548Z,252.45
2023-04-12T05:48:08.687Z,248.85
2023-04-12T05:50:35.841Z,252.20
2023-04-12T05:53:02.516Z,255.40
2023-04-12T05:55:30.151Z,260.60
2023-04-12T05:57:58.533Z,260.50
2023-04-12T06:00:26.260Z,264.88
2023-04-12T06:02:53.113Z,265.70
2023-04-12T06:05:19.770Z,266.77
2023-04-12T06:07:49.368Z,270.73
2023-04-12T06:10:17.600Z,273.25
2023-04-12T06:12:44.970Z,277.02
2023-04-12T06:15:11.950Z,281.85
2023-04-12T06:17:38.636Z,280.30
2023-04-12T06:20:09.185Z,284.95
2023-04-12T06:22:36.965Z,288.17
2023-04-12T06:25:04.043Z,290.67
2023-04-12T06:27:30.978Z,292.48
2023-04-12T06:29:57.641Z,293.25
2023-04-12T06:32:24.431Z,298.88
2023-04-12T06:34:51.042Z,300.85
2023-04-12T06:37:17.646Z,303.67
2023-04-12T06:39:44.205Z,307.17
2023-04-12T06:42:12.567Z,308.15
2023-04-12T06:44:40.607Z,310.60
2023-04-12T06:47:07.273Z,313.60
2023-04-12T06:49:33.982Z,314.00
2023-04-12T06:52:00.613Z,314.27
2023-04-12T06:54:27.141Z,317.80
2023-04-12T06:56:53.684Z,327.20
2023-04-12T06:59:20.575Z,330.77
2023-04-12T07:01:47.203Z,334.48
2023-04-12T07:04:13.924Z,328.40
2023-04-12T07:06:40.787Z,328.67
2023-04-12T07:09:07.412Z,334.63
2023-04-12T07:11:34.006Z,338.70
2023-04-12T07:14:00.640Z,340.30
2023-04-12T07:16:27.715Z,340.83
2023-04-12T07:18:54.460Z,343.05
2023-04-12T07:21:21.021Z,345.10
2023-04-12T07:23:51.253Z,348.65
2023-04-12T07:26:19.115Z,346.08
2023-04-12T07:28:45.813Z,349.00
2023-04-12T07:31:12.393Z,352.58
2023-04-12T07:33:41.440Z,347.83
2023-04-12T07:36:09.961Z,342.75
2023-04-12T07:38:36.657Z,347.92
2023-04-12T07:41:03.384Z,351.42
2023-04-12T07:43:29.971Z,354.35
2023-04-12T07:45:56.712Z,358.88
2023-04-12T07:48:23.380Z,364.10
2023-04-12T07:50:50.548Z,360.92
2023-04-12T07:53:22.097Z,363.83
2023-04-12T07:55:49.668Z,363.45
2023-04-12T07:58:17.130Z,367.13
2023-04-12T08:00:44.838Z,364.60
2023-04-12T08:03:13.001Z,369.90
2023-04-12T08:05:40.786Z,374.42
2023-04-12T08:08:09.899Z,373.40
2023-04-12T08:10:37.492Z,369.60
2023-04-12T08:13:05.339Z,373.00
2023-04-12T08:15:31.949Z,370.90
2023-04-12T08:17:58.661Z,372.35
2023-04-12T08:20:25.918Z,367.88
2023-04-12T08:22:52.864Z,369.02
2023-04-12T08:25:19.537Z,370.50
2023-04-12T08:27:46.141Z,368.25
2023-04-12T08:30:13.429Z,372.25
2023-04-12T08:32:40.133Z,369.23
2023-04-12T08:35:07.030Z,374.70
2023-04-12T08:37:34.267Z,370.42
2023-04-12T08:40:05.451Z,369.05
2023-04-12T08:42:32.460Z,367.80
2023-04-12T08:44:59.033Z,367.83
2023-04-12T08:47:26.208Z,370.67
2023-04-12T08:49:52.797Z,369.58
2023-04-12T08:52:19.479Z,374.02
2023-04-12T08:54:46.169Z,373.15
2023-04-12T08:57:14.178Z,377.48
2023-04-12T08:59:42.489Z,376.35
2023-04-12T09:02:09.842Z,376.00
2023-04-12T09:04:50.725Z,373.75
2023-04-12T09:07:17.407Z,378.95
2023-04-12T09:09:45.328Z,383.23
2023-04-12T09:12:12.707Z,380.70
2023-04-12T09:14:40.390Z,376.80
2023-04-12T09:17:27.044Z,370.75
2023-04-12T09:19:56.139Z,373.33
2023-04-12T09:22:36.175Z,376.33
2023-04-12T09:25:03.344Z,375.33
2023-04-12T09:27:29.957Z,374.52
2023-04-12T09:30:09.881Z,382.25
2023-04-12T09:32:37.111Z,381.65
2023-04-12T09:35:05.700Z,377.02
2023-04-12T09:37:32.337Z,376.45
2023-04-12T09:40:09.776Z,381.02
2023-04-12T09:42:51.333Z,385.05
2023-04-12T09:45:25.909Z,385.85
2023-04-12T09:47:53.657Z,387.33
2023-04-12T09:50:30.863Z,389.20
2023-04-12T09:52:58.275Z,399.02
2023-04-12T09:55:26.848Z,395.08
2023-04-12T09:57:55.300Z,393.73
2023-04-12T10:00:27.070Z,401.58
2023-04-12T10:02:55.067Z,397.65
2023-04-12T10:05:26.850Z,394.35
2023-04-12T10:07:55.233Z,401.15
2023-04-12T10:10:22.963Z,407.80
2023-04-12T10:12:50.578Z,402.52
2023-04-12T10:15:18.289Z,421.55
2023-04-12T10:17:51.419Z,409.30
2023-04-12T10:20:20.353Z,416.83
2023-04-12T10:22:52.338Z,410.95
2023-04-12T10:25:25.365Z,407.98
2023-04-12T10:27:52.204Z,420.95
2023-04-12T10:30:24.636Z,412.25
2023-04-12T10:33:03.641Z,408.83
2023-04-12T10:35:48.861Z,407.35
2023-04-12T10:38:16.505Z,409.50
2023-04-12T10:41:13.485Z,407.88
2023-04-12T10:43:44.135Z,409.25
2023-04-12T10:46:36.651Z,412.02
2023-04-12T10:49:21.232Z,418.90
2023-04-12T10:52:10.543Z,412.73
2023-04-12T10:54:37.325Z,414.52
2023-04-12T10:57:04.715Z,411.05
2023-04-12T10:59:57.528Z,420.92
2023-04-12T11:02:24.312Z,415.50
2023-04-12T11:05:11.215Z,425.05
2023-04-12T11:07:42.922Z,426.00
2023-04-12T11:10:15.076Z,425.50
2023-04-12T11:12:43.048Z,418.88
2023-04-12T11:15:13.672Z,414.42
2023-04-12T11:17:40.437Z,424.33
2023-04-12T11:20:12.352Z,423.83
2023-04-12T11:22:40.538Z,423.25
2023-04-12T11:25:07.495Z,428.00
2023-04-12T11:27:34.606Z,415.40
2023-04-12T11:30:01.648Z,415.50
2023-04-12T11:32:30.295Z,422.25
2023-04-12T11:34:58.658Z,424.30
2023-04-12T11:37:27.140Z,431.40
2023-04-12T11:39:57.192Z,430.13
2023-04-12T11:42:25.173Z,425.38
2023-04-12T11:44:58.469Z,428.25
2023-04-12T11:47:27.863Z,424.00
2023-04-12T11:49:57.089Z,430.95
2023-04-12T11:52:31.791Z,426.63
2023-04-12T11:55:06.843Z,432.30
2023-04-12T11:57:34.685Z,431.52
2023-04-12T12:00:01.760Z,431.88
2023-04-12T12:02:33.123Z,434.38
2023-04-12T12:05:03.686Z,434.00
2023-04-12T12:07:31.614Z,423.00
2023-04-12T12:09:58.623Z,428.65
2023-04-12T12:12:25.680Z,443.75
2023-04-12T12:14:52.309Z,447.42
2023-04-12T12:17:19.491Z,451.15
2023-04-12T12:19:46.555Z,453.55
2023-04-12T12:22:22.133Z,449.10
2023-04-12T12:24:54.808Z,451.73
2023-04-12T12:27:33.409Z,453.83
2023-04-12T12:30:01.841Z,451.17
2023-04-12T12:32:34.045Z,450.35
2023-04-12T12:35:00.751Z,446.63
2023-04-12T12:37:28.674Z,432.52
2023-04-12T12:40:13.853Z,435.73
2023-04-12T12:43:07.034Z,437.15
2023-04-12T12:45:38.806Z,442.43
2023-04-12T12:48:05.740Z,438.45
2023-04-12T12:50:34.736Z,443.77
2023-04-12T12:53:02.503Z,447.25
2023-04-12T12:55:30.965Z,448.15
2023-04-12T13:00:29.411Z,446.30
2023-04-12T13:02:56.652Z,451.48
2023-04-12T13:05:23.719Z,449.98
2023-04-12T13:07:50.346Z,454.48
2023-04-12T13:10:17.966Z,460.85
2023-04-12T13:12:44.573Z,460.20
2023-04-12T13:15:20.971Z,460.13
2023-04-12T13:17:54.942Z,467.83
2023-04-12T13:20:22.900Z,468.58
2023-04-12T13:22:52.171Z,465.15
2023-04-12T13:25:21.843Z,468.80
2023-04-12T13:27:49.769Z,470.10
2023-04-12T13:30:16.868Z,473.00
2023-04-12T13:32:44.792Z,485.92
2023-04-12T13:35:11.906Z,487.77
2023-04-12T13:37:38.555Z,483.73
2023-04-12T13:40:05.574Z,481.55
2023-04-12T13:42:32.355Z,478.60
2023-04-12T13:44:59.244Z,472.92
2023-04-12T13:47:27.199Z,480.77
2023-04-12T13:49:56.608Z,474.73
2023-04-12T13:52:23.416Z,480.40
2023-04-12T13:54:51.434Z,476.67
2023-04-12T13:57:18.116Z,478.70
2023-04-12T13:59:44.865Z,477.67
2023-04-12T14:02:11.649Z,485.42
2023-04-12T14:04:51.056Z,478.23
2023-04-12T14:07:18.038Z,477.95
2023-04-12T14:09:44.663Z,479.40
2023-04-12T14:12:11.526Z,468.45
2023-04-12T14:14:38.136Z,469.00
2023-04-12T14:17:04.794Z,467.52
2023-04-12T14:19:31.424Z,465.30
2023-04-12T14:21:58.068Z,467.50
2023-04-12T14:24:24.869Z,466.05
2023-04-12T14:26:51.468Z,466.02
2023-04-12T14:29:18.058Z,461.65
2023-04-12T14:31:44.808Z,467.80
2023-04-12T14:34:11.673Z,453.63
2023-04-12T14:36:38.279Z,458.83
2023-04-12T14:39:06.361Z,448.90
2023-04-12T14:41:34.386Z,456.65
2023-04-12T14:44:01.199Z,458.33
2023-04-12T14:46:28.436Z,460.23
2023-04-12T14:48:57.350Z,456.58
2023-04-12T14:51:24.125Z,457.98
2023-04-12T14:53:51.020Z,465.70
2023-04-12T14:56:24.248Z,476.45
2023-04-12T14:58:54.051Z,477.10
2023-04-12T15:01:25.365Z,473.85
2023-04-12T15:03:53.173Z,474.98
2023-04-12T15:06:23.078Z,478.17
2023-04-12T15:08:57.304Z,478.70
2023-04-12T15:11:26.783Z,478.25
2023-04-12T15:13:53.908Z,474.92
2023-04-12T15:16:20.692Z,474.20
2023-04-12T15:18:47.585Z,458.23
2023-04-12T15:21:14.530Z,459.42
2023-04-12T15:23:41.844Z,474.50
2023-04-12T15:26:12.107Z,471.77
2023-04-12T15:28:38.749Z,477.98
2023-04-12T15:31:05.893Z,470.35
2023-04-12T15:33:34.858Z,471.17
2023-04-12T15:36:02.338Z,471.95
2023-04-12T15:38:29.960Z,478.00
2023-04-12T15:40:59.074Z,479.95
2023-04-12T15:43:26.401Z,478.40
2023-04-12T15:45:54.740Z,481.15
2023-04-12T15:48:23.170Z,475.77
2023-04-12T15:50:50.643Z,471.83
2023-04-12T15:53:20.670Z,476.33
2023-04-12T15:55:47.558Z,470.98
2023-04-12T15:58:14.771Z,478.83
2023-04-12T16:00:42.270Z,475.65
2023-04-12T16:03:09.293Z,479.85
2023-04-12T16:05:36.424Z,484.95
2023-04-12T16:08:03.159Z,484.95
2023-04-12T16:10:30.461Z,484.17
2023-04-12T16:12:57.411Z,488.70
2023-04-12T16:15:24.186Z,484.85
2023-04-12T16:17:53.290Z,480.25
2023-04-12T16:20:23.494Z,474.45
2023-04-12T16:22:54.409Z,479.25
2023-04-12T16:25:22.745Z,481.90
2023-04-12T16:27:49.461Z,486.73
2023-04-12T16:30:17.100Z,483.77
2023-04-12T16:32:47.459Z,487.23
2023-04-12T16:35:15.327Z,488.02
2023-04-12T16:37:46.226Z,514.22
2023-04-12T16:40:13.113Z,511.33
2023-04-12T16:42:44.117Z,504.58
2023-04-12T16:45:13.950Z,504.60
2023-04-12T16:47:40.960Z,510.42
2023-04-12T16:50:12.767Z,498.23
2023-04-12T16:52:40.024Z,502.15
2023-04-12T16:55:07.173Z,505.20
2023-04-12T16:57:33.737Z,512.10
2023-04-12T17:00:00.682Z,507.92
2023-04-12T17:02:27.422Z,510.88
2023-04-12T17:04:54.650Z,511.67
2023-04-12T17:07:21.769Z,512.25
2023-04-12T17:09:48.450Z,514.75
2023-04-12T17:12:15.182Z,520.55
2023-04-12T17:14:41.744Z,520.90
2023-04-12T17:17:08.458Z,523.92
2023-04-12T17:19:35.187Z,521.88
2023-04-12T17:22:01.822Z,513.55
2023-04-12T17:24:29.217Z,522.95
2023-04-12T17:26:56.356Z,533.60
2023-04-12T17:29:23.057Z,531.88
2023-04-12T17:31:51.914Z,535.67
2023-04-12T17:34:21.036Z,536.53
2023-04-12T17:36:49.277Z,547.50
2023-04-12T17:39:16.358Z,549.33
2023-04-12T17:41:43.141Z,544.97
2023-04-12T17:44:09.751Z,526.97
2023-04-12T17:46:36.280Z,524.45
2023-04-12T17:49:05.819Z,520.10
2023-04-12T17:51:33.286Z,512.17
2023-04-12T17:54:00.877Z,513.90
2023-04-12T17:56:27.600Z,522.75
2023-04-12T17:58:55.267Z,527.78
2023-04-12T18:01:22.325Z,535.05
2023-04-12T18:03:49.405Z,496.95
2023-04-12T18:06:18.371Z,502.13
2023-04-12T18:08:45.365Z,512.58
2023-04-12T18:11:13.051Z,530.40
2023-04-12T18:13:39.672Z,536.65
2023-04-12T18:16:07.142Z,533.80
2023-04-12T18:18:33.967Z,501.95
2023-04-12T18:21:04.346Z,506.67
2023-04-12T18:23:30.863Z,516.28
2023-04-12T18:25:57.377Z,522.63
2023-04-12T18:28:24.833Z,527.78
2023-04-12T18:30:51.464Z,537.75
2023-04-12T18:33:18.072Z,551.33
2023-04-12T18:35:44.916Z,552.13
2023-04-12T18:38:11.429Z,560.10
2023-04-12T18:40:38.438Z,556.60
2023-04-12T18:43:04.999Z,556.70
2023-04-12T18:45:32.213Z,559.92
2023-04-12T18:48:00.060Z,571.10
2023-04-12T18:50:26.976Z,558.50
2023-04-12T18:52:53.615Z,562.03
2023-04-12T18:55:20.603Z,551.70
2023-04-12T18:57:48.973Z,559.97
2023-04-12T19:00:16.388Z,568.65
2023-04-12T19:02:43.217Z,567.35
2023-04-12T19:05:14.811Z,567.28
2023-04-12T19:07:41.425Z,573.10
2023-04-12T19:10:09.203Z,563.63
2023-04-12T19:12:35.793Z,562.88
2023-04-12T19:15:02.419Z,574.33
2023-04-12T19:17:29.337Z,579.33
2023-04-12T19:19:56.901Z,522.40
2023-04-12T19:22:27.392Z,556.95
2023-04-12T19:24:54.714Z,569.60
2023-04-12T19:27:22.977Z,583.30
2023-04-12T19:29:51.446Z,559.50
2023-04-12T19:32:18.327Z,105.70
2023-04-12T19:34:44.921Z,3.17
2023-04-12T19:37:11.697Z,316.33
2023-04-12T19:39:40.416Z,599.15
2023-04-12T19:42:07.406Z,535.05
2023-04-12T19:44:33.978Z,574.05
2023-04-12T19:47:01.502Z,559.42
2023-04-12T19:49:28.120Z,545.83
2023-04-12T19:51:55.081Z,590.88
2023-04-12T19:54:25.524Z,586.17
2023-04-12T19:56:53.414Z,582.15
2023-04-12T19:59:21.044Z,597.13
2023-04-12T20:01:48.209Z,598.95
2023-04-12T20:04:16.708Z,557.17
2023-04-12T20:06:43.929Z,591.72
2023-04-12T20:09:13.814Z,603.17
2023-04-12T20:11:41.479Z,611.53
2023-04-12T20:14:08.228Z,620.10
2023-04-12T20:16:36.755Z,620.97
2023-04-12T20:19:04.940Z,625.38
2023-04-12T20:21:32.390Z,629.10
2023-04-12T20:24:01.927Z,617.58
2023-04-12T20:26:31.672Z,615.65
2023-04-12T20:28:59.851Z,621.22
2023-04-12T20:31:27.135Z,612.35
2023-04-12T20:33:55.074Z,625.67
2023-04-12T20:36:22.749Z,633.35
2023-04-12T20:38:53.706Z,632.15
2023-04-12T20:41:20.460Z,628.65
2023-04-12T20:43:48.314Z,629.95
2023-04-12T20:46:18.821Z,627.78
2023-04-12T20:48:47.572Z,610.22
2023-04-12T20:51:21.052Z,615.38
2023-04-12T20:53:47.869Z,635.28
2023-04-12T20:56:15.497Z,617.60
2023-04-12T20:58:42.031Z,604.53
2023-04-12T21:01:14.710Z,627.55
2023-04-12T21:03:42.347Z,633.25
2023-04-12T21:06:10.914Z,617.88
2023-04-12T21:08:39.008Z,628.50
2023-04-12T21:11:06.545Z,621.42
2023-04-12T21:13:34.694Z,609.92
2023-04-12T21:16:05.692Z,582.35
2023-04-12T21:18:34.307Z,571.80
2023-04-12T21:21:01.472Z,576.03
2023-04-12T21:23:28.130Z,573.95
2023-04-12T21:25:54.728Z,581.53
2023-04-12T21:28:22.937Z,581.88
2023-04-12T21:30:54.967Z,584.85
2023-04-12T21:33:25.118Z,574.22
2023-04-12T21:35:55.253Z,581.72
2023-04-12T21:38:22.956Z,576.58
2023-04-12T21:40:49.711Z,582.90
2023-04-12T21:43:16.587Z,583.60
2023-04-12T21:45:43.192Z,582.50
2023-04-12T21:48:09.904Z,586.13
2023-04-12T21:50:37.643Z,589.90
2023-04-12T21:53:04.157Z,582.58
2023-04-12T21:55:30.745Z,582.72
2023-04-12T21:57:57.267Z,588.15
2023-04-12T22:00:24.901Z,582.28
2023-04-12T22:02:51.596Z,584.55
2023-04-12T22:05:18.376Z,585.75
2023-04-12T22:07:45.179Z,615.70
2023-04-12T22:10:12.140Z,612.60
2023-04-12T22:12:39.559Z,615.95
2023-04-12T22:15:06.609Z,621.38
2023-04-12T22:17:33.459Z,616.65
2023-04-12T22:20:00.135Z,618.35
2023-04-12T22:22:29.954Z,625.15
2023-04-12T22:24:56.596Z,619.78
2023-04-12T22:27:26.477Z,624.88
2023-04-12T22:29:53.698Z,626.95
2023-04-12T22:32:20.706Z,632.00
2023-04-12T22:34:54.892Z,636.42
2023-04-12T22:37:28.409Z,636.42
2023-04-12T22:39:55.108Z,648.03
2023-04-12T22:42:26.528Z,644.78
2023-04-12T22:44:54.240Z,643.70
2023-04-12T22:47:20.893Z,645.63
2023-04-12T22:49:50.769Z,646.30
2023-04-12T22:52:17.708Z,647.72
2023-04-12T22:54:44.424Z,648.70
2023-04-12T22:57:11.020Z,652.72
2023-04-12T22:59:37.516Z,645.10
2023-04-12T23:02:04.611Z,651.92
2023-04-12T23:04:31.405Z,653.40
2023-04-12T23:06:57.963Z,653.22
2023-04-12T23:09:25.556Z,653.42
2023-04-12T23:11:52.608Z,654.42
2023-04-12T23:14:19.146Z,656.13
2023-04-12T23:16:46.248Z,659.35
2023-04-12T23:19:14.693Z,667.85
2023-04-12T23:21:41.878Z,667.58
2023-04-12T23:24:08.637Z,668.55
2023-04-12T23:26:35.953Z,670.70
2023-04-12T23:29:05.662Z,663.03
2023-04-12T23:31:32.432Z,669.53
2023-04-12T23:34:06.115Z,670.55
2023-04-12T23:36:33.693Z,673.53
2023-04-12T23:39:00.520Z,677.42
2023-04-12T23:41:27.786Z,673.33
2023-04-12T23:43:54.305Z,676.67
2023-04-12T23:46:22.241Z,676.78
2023-04-12T23:48:49.440Z,675.42
2023-04-12T23:51:16.702Z,682.65
2023-04-12T23:53:43.580Z,693.25
2023-04-12T23:56:10.336Z,694.63
2023-04-12T23:58:37.320Z,697.55
